Time;durP1;ratioP1;P1;durP2;ratioP2;P2;SDS_P1;SDS_P2;PMS_P1;PMS_P2;Temp;Humidity;BMP_temperature;BMP_pressure;BME280_temperature;BME280_humidity;BME280_pressure;Samples;Min_cycle;Max_cycle;Signal;HPM_P1;HPM_P2
2024/03/11 00:00:46;;;;;;;13.85;8.60;;;;;;;11.48;65.93;98872.50;6118123;23;97166;-93
2024/03/11 00:03:12;;;;;;;14.82;8.43;;;;;;;11.57;65.61;98873.72;6093063;23;99560;-91
2024/03/11 00:05:37;;;;;;;12.65;8.48;;;;;;;11.54;65.13;98864.25;6119454;23;97204;-92
2024/03/11 00:08:05;;;;;;;12.82;8.70;;;;;;;11.51;65.57;98863.59;6117322;23;96638;-93
2024/03/11 00:10:33;;;;;;;11.75;9.05;;;;;;;11.58;65.42;98867.53;6118804;23;96757;-90
2024/03/11 00:13:00;;;;;;;11.75;8.75;;;;;;;11.54;65.36;98860.78;6118211;22;100395;-91
2024/03/11 00:15:25;;;;;;;16.05;8.93;;;;;;;11.59;65.10;98850.00;6093267;23;100145;-90
2024/03/11 00:17:52;;;;;;;15.13;8.48;;;;;;;11.71;64.56;98860.59;6117660;23;97251;-92
2024/03/11 00:20:20;;;;;;;13.55;8.48;;;;;;;11.63;65.12;98870.72;6117916;23;96771;-91
2024/03/11 00:22:46;;;;;;;12.07;8.40;;;;;;;11.62;64.74;98855.06;6094002;23;100344;-92
2024/03/11 00:25:12;;;;;;;12.07;8.77;;;;;;;11.56;64.66;98838.72;6092952;23;99378;-92
2024/03/11 00:27:38;;;;;;;14.48;8.98;;;;;;;11.60;64.28;98860.38;6117303;23;96904;-92
2024/03/11 00:30:11;;;;;;;17.10;8.82;;;;;;;11.60;64.45;98847.25;6119000;23;97229;-93
2024/03/11 00:32:38;;;;;;;12.25;8.40;;;;;;;11.54;64.34;98850.25;6118722;23;96767;-92
2024/03/11 00:35:06;;;;;;;18.50;9.65;;;;;;;11.51;64.86;98847.81;6118549;22;98665;-93
2024/03/11 00:37:31;;;;;;;12.98;8.57;;;;;;;11.64;64.26;98850.56;6116536;22;97230;-95
2024/03/11 00:39:57;;;;;;;13.32;8.77;;;;;;;11.46;64.78;98829.72;6093167;23;96653;-88
2024/03/11 00:42:22;;;;;;;13.32;8.55;;;;;;;11.46;65.04;98837.59;6094127;23;96631;-92
2024/03/11 00:44:50;;;;;;;14.63;9.07;;;;;;;11.46;64.91;98850.75;6122415;23;99994;-92
2024/03/11 00:47:21;;;;;;;14.40;9.48;;;;;;;11.50;64.78;98852.22;6125118;22;96695;-91
2024/03/11 00:49:47;;;;;;;14.90;9.17;;;;;;;11.39;64.83;98852.03;6129246;23;97132;-91
2024/03/11 00:52:14;;;;;;;15.90;9.70;;;;;;;11.36;65.30;98846.97;6124422;22;99216;-91
2024/03/11 00:54:40;;;;;;;14.30;9.63;;;;;;;11.45;65.12;98846.41;6121864;23;97822;-90
2024/03/11 00:57:06;;;;;;;14.57;9.40;;;;;;;11.48;64.70;98845.38;6127094;23;96752;-92
2024/03/11 00:59:32;;;;;;;13.40;9.25;;;;;;;11.40;65.11;98860.75;6130743;23;97121;-91
2024/03/11 01:01:58;;;;;;;16.45;10.15;;;;;;;11.35;65.37;98840.03;6122578;23;97457;-87
2024/03/11 01:04:24;;;;;;;14.07;9.85;;;;;;;11.33;64.97;98826.97;6093389;23;97377;-91
2024/03/11 01:06:50;;;;;;;14.05;9.50;;;;;;;11.37;65.14;98851.28;6117673;22;97005;-85
2024/03/11 01:09:20;;;;;;;14.20;9.70;;;;;;;11.39;65.04;98832.81;6093986;23;96672;-93
2024/03/11 01:11:48;;;;;;;14.65;9.88;;;;;;;11.33;65.20;98849.78;6069350;23;100693;-89
2024/03/11 01:14:14;;;;;;;14.90;10.00;;;;;;;11.41;65.12;98841.44;6117993;22;100497;-86
2024/03/11 01:16:40;;;;;;;13.70;9.18;;;;;;;11.43;65.21;98840.44;6117073;23;96744;-87
2024/03/11 01:19:09;;;;;;;13.55;10.13;;;;;;;11.36;65.27;98839.09;6093002;23;97117;-92
2024/03/11 01:21:35;;;;;;;19.08;10.68;;;;;;;11.33;65.67;98834.88;6092788;23;100107;-90
2024/03/11 01:24:04;;;;;;;18.60;11.43;;;;;;;11.36;65.37;98828.59;6117783;23;97508;-88
2024/03/11 01:26:30;;;;;;;15.10;11.02;;;;;;;11.26;65.64;98827.47;6116510;23;96993;-90
2024/03/11 01:28:55;;;;;;;14.55;10.57;;;;;;;11.32;65.75;98813.97;6092655;23;96840;-92
2024/03/11 01:31:23;;;;;;;15.70;10.40;;;;;;;11.34;65.78;98817.31;6117439;23;98049;-92
2024/03/11 01:33:51;;;;;;;17.67;10.85;;;;;;;11.26;65.63;98815.16;6070491;23;100221;-92
2024/03/11 01:36:18;;;;;;;15.00;10.02;;;;;;;11.24;65.97;98817.03;6124258;23;96587;-90
2024/03/11 01:38:46;;;;;;;17.67;11.50;;;;;;;11.21;65.94;98806.72;6068509;23;96865;-92
2024/03/11 01:41:12;;;;;;;20.00;12.70;;;;;;;11.17;65.92;98804.34;6092270;23;100570;-92
2024/03/11 01:43:38;;;;;;;15.73;10.77;;;;;;;11.13;66.19;98805.50;6068428;23;99070;-92
2024/03/11 01:46:05;;;;;;;17.67;11.68;;;;;;;11.12;66.44;98801.19;6092631;23;97091;-92
2024/03/11 01:48:31;;;;;;;15.23;10.60;;;;;;;11.07;66.00;98807.53;6092818;23;97089;-92
2024/03/11 01:50:57;;;;;;;14.77;10.65;;;;;;;10.98;66.32;98794.97;6091911;23;100433;-86
2024/03/11 01:53:24;;;;;;;17.55;11.85;;;;;;;10.99;66.61;98795.81;6091445;23;100756;-92
2024/03/11 01:55:51;;;;;;;15.82;10.85;;;;;;;10.96;66.65;98793.38;6117301;23;96672;-86
2024/03/11 01:58:19;;;;;;;14.63;10.50;;;;;;;11.04;66.49;98794.59;6117544;23;97495;-92
2024/03/11 02:00:46;;;;;;;14.30;10.15;;;;;;;11.04;66.15;98791.13;6093388;23;97952;-88
2024/03/11 02:03:11;;;;;;;19.10;10.27;;;;;;;11.02;66.52;98793.00;6117736;23;97294;-92
2024/03/11 02:05:40;;;;;;;13.60;10.50;;;;;;;10.94;66.50;98784.72;6092442;23;96615;-92
2024/03/11 02:08:06;;;;;;;15.80;10.65;;;;;;;10.91;66.69;98792.78;6117386;23;96912;-92
2024/03/11 02:10:33;;;;;;;15.00;11.38;;;;;;;10.95;66.54;98781.19;6117388;23;97361;-92
2024/03/11 02:12:59;;;;;;;15.80;10.23;;;;;;;10.92;66.98;98797.97;6117831;23;97188;-91
2024/03/11 02:15:25;;;;;;;15.30;10.25;;;;;;;10.92;66.96;98792.72;6117295;23;96684;-89
2024/03/11 02:17:51;;;;;;;17.98;11.65;;;;;;;10.91;66.62;98784.91;6091986;23;96723;-91
2024/03/11 02:20:17;;;;;;;16.02;11.05;;;;;;;10.91;67.11;98788.41;6138190;22;97330;-92
2024/03/11 02:22:52;;;;;;;16.17;11.68;;;;;;;10.84;67.17;98777.41;6121937;22;100106;-92
2024/03/11 02:25:28;;;;;;;17.63;11.35;;;;;;;10.74;67.58;98785.94;6097198;22;97246;-90
2024/03/11 02:27:55;;;;;;;14.60;11.27;;;;;;;10.82;67.33;98789.81;6120470;22;97346;-91
2024/03/11 02:30:21;;;;;;;16.02;11.55;;;;;;;10.83;67.22;98788.84;6106842;22;98051;-90
2024/03/11 02:32:47;;;;;;;16.70;11.07;;;;;;;10.81;67.01;98790.72;6110813;22;100333;-90
2024/03/11 02:35:12;;;;;;;15.02;10.45;;;;;;;10.83;66.93;98788.00;6102522;22;96655;-91
2024/03/11 02:37:38;;;;;;;14.35;10.52;;;;;;;10.83;67.22;98798.50;6110361;22;96657;-92
2024/03/11 02:40:07;;;;;;;16.90;11.00;;;;;;;10.93;67.17;98804.06;6101134;22;100383;-91
2024/03/11 02:42:34;;;;;;;16.05;9.55;;;;;;;10.90;66.89;98794.56;6100980;22;99588;-92
2024/03/11 02:44:59;;;;;;;16.90;9.65;;;;;;;10.86;66.95;98816.72;6149491;22;97498;-91
2024/03/11 02:47:26;;;;;;;12.23;8.60;;;;;;;10.88;67.22;98813.06;6072695;22;97037;-89
2024/03/11 02:49:52;;;;;;;13.07;8.60;;;;;;;10.85;67.37;98809.78;6122931;22;100837;-89
2024/03/11 02:52:17;;;;;;;10.13;7.93;;;;;;;10.95;67.02;98810.91;6100010;22;96681;-93
2024/03/11 02:54:45;;;;;;;23.08;9.65;;;;;;;10.76;67.70;98816.41;6121837;22;96697;-91
2024/03/11 02:57:10;;;;;;;14.02;9.55;;;;;;;10.80;67.49;98824.94;6124439;22;97123;-88
2024/03/11 02:59:36;;;;;;;16.73;9.15;;;;;;;10.80;67.62;98817.91;6121669;22;98777;-90
2024/03/11 03:02:01;;;;;;;11.93;9.27;;;;;;;10.82;67.40;98816.06;6121502;22;100433;-90
2024/03/11 03:04:28;;;;;;;14.75;9.80;;;;;;;10.78;67.76;98818.94;6148251;22;96571;-86
2024/03/11 03:06:57;;;;;;;12.30;9.15;;;;;;;10.70;67.91;98815.91;6123304;22;96680;-92
2024/03/11 03:09:24;;;;;;;14.57;9.18;;;;;;;10.79;67.86;98829.34;6123349;22;97534;-90
2024/03/11 03:11:49;;;;;;;12.77;9.02;;;;;;;10.92;67.65;98832.09;6123011;22;99130;-92
2024/03/11 03:14:16;;;;;;;13.35;9.90;;;;;;;10.88;66.91;98814.84;6123532;22;97317;-88
2024/03/11 03:16:41;;;;;;;11.50;8.70;;;;;;;10.84;67.49;98822.03;6098147;22;96758;-92
2024/03/11 03:19:07;;;;;;;12.48;9.63;;;;;;;10.85;67.63;98821.13;6117552;23;97818;-93
2024/03/11 03:21:32;;;;;;;13.07;9.60;;;;;;;10.85;67.76;98826.38;6118399;23;100520;-91
2024/03/11 03:23:58;;;;;;;11.82;9.18;;;;;;;10.84;67.89;98829.06;6092300;23;96685;-89
2024/03/11 03:26:24;;;;;;;13.63;9.68;;;;;;;10.83;67.75;98822.13;6118293;23;97027;-91
2024/03/11 03:28:50;;;;;;;18.60;10.25;;;;;;;10.84;67.72;98823.81;6092176;23;100745;-91
2024/03/11 03:31:15;;;;;;;14.05;10.07;;;;;;;10.86;67.54;98828.03;6118935;23;98809;-92
2024/03/11 03:33:41;;;;;;;15.20;9.82;;;;;;;10.86;67.90;98835.91;6092961;23;96742;-90
2024/03/11 03:36:08;;;;;;;16.27;10.70;;;;;;;10.87;67.72;98840.22;6118192;23;97230;-89
2024/03/11 03:38:37;;;;;;;15.50;10.60;;;;;;;10.85;68.03;98836.88;6117416;23;97898;-89
2024/03/11 03:41:04;;;;;;;14.20;11.02;;;;;;;10.80;68.08;98838.91;6093739;23;100547;-91
2024/03/11 03:43:31;;;;;;;15.00;11.00;;;;;;;10.78;68.26;98829.44;6118405;23;96624;-89
2024/03/11 03:45:57;;;;;;;16.00;11.13;;;;;;;10.87;67.96;98832.34;6119253;23;97257;-85
2024/03/11 03:48:22;;;;;;;17.13;11.77;;;;;;;10.86;68.21;98842.97;6117644;23;97415;-90
2024/03/11 03:50:48;;;;;;;16.27;11.50;;;;;;;10.85;68.16;98826.38;6093211;23;100557;-91
2024/03/11 03:53:13;;;;;;;15.30;11.18;;;;;;;10.83;68.23;98841.34;6067288;23;97107;-89
2024/03/11 03:55:39;;;;;;;17.13;12.00;;;;;;;10.77;68.17;98846.13;6092739;23;97020;-92
2024/03/11 03:58:05;;;;;;;16.95;12.00;;;;;;;10.82;68.05;98842.31;6118011;23;100237;-92
2024/03/11 04:00:30;;;;;;;16.65;12.02;;;;;;;10.85;67.91;98831.63;6093284;23;99121;-89
2024/03/11 04:02:56;;;;;;;16.95;11.85;;;;;;;10.75;68.57;98838.31;6093669;23;96671;-87
2024/03/11 04:05:22;;;;;;;19.48;12.38;;;;;;;10.76;68.35;98837.41;6117825;23;97221;-87
2024/03/11 04:07:48;;;;;;;17.77;12.38;;;;;;;10.80;68.46;98831.03;6068468;23;100403;-91
2024/03/11 04:10:18;;;;;;;18.23;13.18;;;;;;;10.77;68.54;98838.25;6069114;23;100189;-90
2024/03/11 04:12:45;;;;;;;19.10;13.23;;;;;;;10.73;68.58;98837.56;6069929;23;96673;-92
2024/03/11 04:15:12;;;;;;;19.13;12.93;;;;;;;10.80;68.46;98843.31;6092726;23;97232;-92
2024/03/11 04:17:42;;;;;;;20.70;12.80;;;;;;;10.67;68.99;98842.31;6092051;23;100608;-92
2024/03/11 04:20:11;;;;;;;19.65;12.73;;;;;;;10.71;68.85;98855.19;6068186;23;99489;-91
2024/03/11 04:22:49;;;;;;;21.92;13.07;;;;;;;10.71;68.61;98844.69;6045302;23;97215;-90
2024/03/11 04:25:26;;;;;;;23.60;14.73;;;;;;;10.69;69.14;98859.69;6093384;23;96991;-92
2024/03/11 04:27:53;;;;;;;18.60;13.75;;;;;;;10.62;68.87;98855.72;6094078;23;100714;-91
2024/03/11 04:30:20;;;;;;;20.58;14.68;;;;;;;10.60;69.45;98863.69;6066519;23;99487;-91
2024/03/11 04:32:52;;;;;;;21.70;15.43;;;;;;;10.57;69.43;98858.59;6093495;23;96724;-92
2024/03/11 04:35:24;;;;;;;;;;;;;;;10.63;69.41;98875.78;6095369;23;96788;-87
2024/03/11 04:37:52;;;;;;;23.05;13.43;;;;;;;10.61;69.45;98860.09;6118647;23;97293;-88
2024/03/11 04:40:17;;;;;;;19.10;13.73;;;;;;;10.75;68.80;98867.19;6120594;23;97284;-90
2024/03/11 04:42:44;;;;;;;20.38;13.25;;;;;;;10.78;68.78;98868.81;6068463;23;96674;-91
2024/03/11 04:45:09;;;;;;;17.73;13.98;;;;;;;10.89;68.67;98874.28;6043469;23;96803;-90
2024/03/11 04:47:37;;;;;;;18.48;13.70;;;;;;;10.79;68.83;98875.72;6092587;23;96801;-90
2024/03/11 04:50:03;;;;;;;17.17;13.13;;;;;;;10.84;68.89;98885.03;6044513;23;100430;-91
2024/03/11 04:52:29;;;;;;;19.83;14.13;;;;;;;10.84;68.48;98878.94;6069400;23;96679;-91
2024/03/11 04:54:55;;;;;;;17.20;13.68;;;;;;;10.97;68.54;98895.69;6092378;23;96699;-91
2024/03/11 04:57:22;;;;;;;17.35;12.75;;;;;;;10.97;68.49;98894.84;6068350;23;98833;-91
2024/03/11 04:59:49;;;;;;;19.55;13.15;;;;;;;10.90;68.85;98894.34;6092576;23;97095;-89
2024/03/11 05:02:16;;;;;;;17.75;13.48;;;;;;;10.94;68.53;98895.88;6093478;23;96761;-90
2024/03/11 05:04:41;;;;;;;20.80;14.27;;;;;;;10.74;69.65;98898.78;6093343;23;96632;-86
2024/03/11 05:07:08;;;;;;;25.05;14.68;;;;;;;10.76;69.70;98904.78;6066824;23;100268;-90
2024/03/11 05:09:34;;;;;;;19.48;13.90;;;;;;;10.76;69.21;98895.16;6092059;23;98720;-91
2024/03/11 05:12:00;;;;;;;20.23;14.27;;;;;;;10.71;69.87;98894.56;6093186;23;96749;-90
2024/03/11 05:14:25;;;;;;;22.83;14.52;;;;;;;10.60;70.41;98896.94;6068357;23;96791;-89
2024/03/11 05:16:54;;;;;;;20.10;13.70;;;;;;;10.61;70.30;98896.84;6092328;23;100227;-91
2024/03/11 05:19:20;;;;;;;20.67;13.23;;;;;;;10.60;70.48;98894.31;6126390;22;97354;-89
2024/03/11 05:21:45;;;;;;;18.80;13.00;;;;;;;10.59;70.69;98896.09;6122932;22;96834;-92
2024/03/11 05:24:11;;;;;;;19.45;14.13;;;;;;;10.62;70.39;98903.81;6122256;22;96879;-92
2024/03/11 05:26:36;;;;;;;19.27;13.65;;;;;;;10.46;70.93;98892.47;6097215;22;98794;-86
2024/03/11 05:29:03;;;;;;;20.77;14.52;;;;;;;10.62;70.36;98898.56;6148212;22;97748;-87
2024/03/11 05:31:28;;;;;;;19.92;14.20;;;;;;;10.60;70.53;98897.78;6120202;22;97147;-90
2024/03/11 05:33:54;;;;;;;26.48;14.93;;;;;;;10.58;70.98;98922.41;6094776;22;97110;-89
2024/03/11 05:36:20;;;;;;;23.30;14.43;;;;;;;10.49;71.09;98894.91;6145679;22;98068;-87
2024/03/11 05:38:45;;;;;;;20.15;13.65;;;;;;;10.55;71.21;98891.94;6118668;22;97294;-86
2024/03/11 05:41:11;;;;;;;24.75;14.82;;;;;;;10.53;71.30;98898.22;6146039;22;96691;-87
2024/03/11 05:43:37;;;;;;;20.23;14.40;;;;;;;10.54;71.17;98897.31;6146247;22;97235;-87
2024/03/11 05:46:03;;;;;;;20.75;14.85;;;;;;;10.47;71.40;98899.44;6119515;22;96802;-90
2024/03/11 05:48:28;;;;;;;22.48;13.85;;;;;;;10.47;70.85;98886.31;6146710;22;97832;-84
2024/03/11 05:51:01;;;;;;;17.13;13.02;;;;;;;10.61;71.08;98911.75;6121842;22;96796;-84
2024/03/11 05:53:28;;;;;;;22.70;14.68;;;;;;;10.55;71.43;98906.84;6097367;22;97388;-84
2024/03/11 05:55:57;;;;;;;24.10;14.85;;;;;;;10.64;71.33;98908.94;6117808;22;97448;-82
2024/03/11 05:58:26;;;;;;;19.02;14.50;;;;;;;10.49;71.32;98920.31;6092661;22;99005;-82
2024/03/11 06:00:52;;;;;;;20.15;14.70;;;;;;;10.46;71.70;98916.09;6119280;22;96664;-83
2024/03/11 06:03:18;;;;;;;20.38;14.60;;;;;;;10.52;71.93;98917.53;6095199;22;96743;-80
2024/03/11 06:05:44;;;;;;;23.10;15.18;;;;;;;10.62;71.41;98918.72;6094889;22;100600;-89
2024/03/11 06:08:10;;;;;;;24.27;15.10;;;;;;;10.76;70.84;98918.78;6118465;22;97404;-77
2024/03/11 06:10:36;;;;;;;21.83;15.00;;;;;;;10.63;71.46;98917.75;6120268;22;96766;-78
2024/03/11 06:13:02;;;;;;;19.67;13.68;;;;;;;10.53;71.39;98930.56;6121860;22;97154;-82
2024/03/11 06:15:29;;;;;;;20.80;14.68;;;;;;;10.59;71.87;98935.47;6147574;22;97406;-85
2024/03/11 06:17:55;;;;;;;23.58;15.48;;;;;;;10.57;71.60;98931.22;6146771;22;97520;-85
2024/03/11 06:20:20;;;;;;;18.83;14.15;;;;;;;10.50;71.98;98940.38;6145998;22;96688;-85
2024/03/11 06:22:46;;;;;;;22.23;15.65;;;;;;;10.46;71.85;98926.56;6121204;22;96704;-85
2024/03/11 06:25:12;;;;;;;22.33;15.98;;;;;;;10.46;72.53;98941.47;6094744;22;100121;-85
2024/03/11 06:27:37;;;;;;;22.23;15.38;;;;;;;10.52;72.07;98949.00;6095175;22;100240;-84
2024/03/11 06:30:05;;;;;;;22.98;14.57;;;;;;;10.55;72.08;98935.72;6120534;22;96706;-84
2024/03/11 06:32:32;;;;;;;22.13;14.88;;;;;;;10.48;71.92;98939.63;6095954;22;96803;-84
2024/03/11 06:34:57;;;;;;;22.33;15.25;;;;;;;10.57;72.19;98957.47;6095748;22;98744;-84
2024/03/11 06:37:23;;;;;;;22.65;15.15;;;;;;;10.60;72.27;98952.91;6120903;22;97277;-84
2024/03/11 06:39:49;;;;;;;25.98;14.50;;;;;;;10.63;72.02;98971.09;6121631;22;96637;-84
2024/03/11 06:42:14;;;;;;;21.85;15.55;;;;;;;10.62;71.95;98977.28;6122034;22;96685;-84
2024/03/11 06:44:40;;;;;;;23.27;14.55;;;;;;;10.73;72.00;98979.28;6096043;22;97759;-85
2024/03/11 06:47:08;;;;;;;24.15;14.95;;;;;;;10.69;72.00;98963.81;6096801;22;100446;-85
2024/03/11 06:49:33;;;;;;;22.80;14.88;;;;;;;10.56;71.75;98958.38;6121738;22;96661;-84
2024/03/11 06:51:59;;;;;;;29.45;15.63;;;;;;;10.69;72.13;98971.69;6097157;22;96739;-85
2024/03/11 06:54:24;;;;;;;24.60;15.65;;;;;;;10.79;71.71;98964.97;6147729;22;97473;-85
2024/03/11 06:56:50;;;;;;;26.92;15.02;;;;;;;10.83;71.59;98977.84;6096504;22;97210;-84
2024/03/11 06:59:15;;;;;;;24.70;15.95;;;;;;;10.62;71.70;98965.94;6121993;22;96717;-84
2024/03/11 07:01:41;;;;;;;24.13;16.27;;;;;;;10.72;71.88;98993.34;6097015;22;96810;-87
2024/03/11 07:04:08;;;;;;;20.55;14.95;;;;;;;10.70;71.71;98976.84;6148808;22;97628;-84
2024/03/11 07:06:34;;;;;;;25.33;15.85;;;;;;;10.83;71.50;98974.38;6121383;22;97742;-85
2024/03/11 07:09:01;;;;;;;25.35;15.18;;;;;;;10.73;72.04;98987.16;6121174;22;96798;-84
2024/03/11 07:11:27;;;;;;;20.20;14.10;;;;;;;10.81;71.83;98987.59;6096654;22;97245;-83
2024/03/11 07:13:52;;;;;;;27.77;15.45;;;;;;;10.98;71.55;98984.00;6149631;22;98143;-85
2024/03/11 07:16:18;;;;;;;21.83;15.30;;;;;;;11.15;70.44;98985.69;6120922;22;97295;-83
2024/03/11 07:18:43;;;;;;;20.40;15.02;;;;;;;11.14;70.84;98991.88;6121762;22;96712;-82
2024/03/11 07:21:12;;;;;;;21.90;15.23;;;;;;;11.20;70.51;98993.28;6121262;22;96766;-84
2024/03/11 07:23:37;;;;;;;20.98;13.95;;;;;;;11.23;70.62;98999.22;6147903;22;97256;-83
2024/03/11 07:26:04;;;;;;;19.58;13.73;;;;;;;11.28;69.93;98986.66;6121614;22;97393;-85
2024/03/11 07:28:31;;;;;;;23.52;14.50;;;;;;;11.27;70.35;98997.25;6148241;22;97055;-85
2024/03/11 07:30:57;;;;;;;22.83;13.85;;;;;;;11.28;69.96;99001.56;6121641;22;97287;-84
2024/03/11 07:33:23;;;;;;;21.17;14.88;;;;;;;11.24;70.11;98998.28;6121384;22;97313;-83
2024/03/11 07:35:50;;;;;;;21.17;13.90;;;;;;;11.27;70.19;98992.00;6096580;22;97999;-84
2024/03/11 07:38:17;;;;;;;21.42;14.23;;;;;;;11.25;70.52;98997.34;6148168;22;96661;-85
2024/03/11 07:40:43;;;;;;;23.85;14.40;;;;;;;11.23;70.43;99001.84;6121411;22;97562;-84
2024/03/11 07:43:10;;;;;;;26.13;14.90;;;;;;;11.24;70.58;99000.06;6148751;22;97545;-85
2024/03/11 07:45:40;;;;;;;23.58;15.00;;;;;;;11.38;69.73;99017.66;6121651;22;97017;-86
2024/03/11 07:48:06;;;;;;;21.90;13.85;;;;;;;11.43;69.62;99019.09;6121182;22;96793;-85
2024/03/11 07:50:32;;;;;;;28.20;14.05;;;;;;;11.60;69.53;99028.59;6120591;22;96735;-86
2024/03/11 07:52:58;;;;;;;20.90;14.48;;;;;;;11.53;69.33;99017.59;6148548;22;97761;-84
2024/03/11 07:55:24;;;;;;;23.30;14.07;;;;;;;11.73;69.34;99028.75;6095758;22;100279;-85
2024/03/11 07:57:53;;;;;;;19.45;12.93;;;;;;;11.70;68.98;99023.66;6120804;22;97214;-86
2024/03/11 08:00:22;;;;;;;20.50;13.23;;;;;;;11.75;68.47;99032.09;6121039;22;96835;-85
2024/03/11 08:02:48;;;;;;;24.33;13.70;;;;;;;11.72;69.29;99040.16;6122226;22;97432;-85
2024/03/11 08:05:14;;;;;;;19.20;12.57;;;;;;;11.71;69.33;99026.19;6096271;22;100651;-85
2024/03/11 08:07:41;;;;;;;18.63;13.20;;;;;;;11.73;68.83;99049.78;6121092;22;96733;-86
2024/03/11 08:10:09;;;;;;;22.35;14.07;;;;;;;11.84;68.43;99036.84;6120896;22;97196;-85
2024/03/11 08:12:35;;;;;;;18.60;12.82;;;;;;;11.86;69.00;99039.41;6121962;22;97517;-85
2024/03/11 08:15:04;;;;;;;25.20;14.32;;;;;;;11.88;68.50;99048.06;6147954;22;97310;-86
2024/03/11 08:17:30;;;;;;;22.80;14.77;;;;;;;11.75;68.96;99042.63;6121755;22;96933;-85
2024/03/11 08:19:55;;;;;;;22.50;13.32;;;;;;;11.84;69.27;99039.47;6091537;23;96903;-85
2024/03/11 08:22:21;;;;;;;29.17;13.48;;;;;;;11.97;68.47;99052.75;6115089;23;99128;-85
2024/03/11 08:24:47;;;;;;;24.20;13.68;;;;;;;11.84;68.86;99042.09;6117061;23;97249;-86
2024/03/11 08:27:15;;;;;;;22.17;13.95;;;;;;;11.97;68.52;99053.59;6116474;23;96775;-84
2024/03/11 08:29:43;;;;;;;25.95;14.25;;;;;;;12.16;68.35;99045.47;6091777;23;96784;-85
2024/03/11 08:32:09;;;;;;;22.67;13.50;;;;;;;12.75;67.15;99055.00;6092011;23;97370;-85
2024/03/11 08:34:35;;;;;;;19.80;13.70;;;;;;;13.05;65.66;99058.31;6091429;23;97747;-86
2024/03/11 08:37:03;;;;;;;18.55;12.82;;;;;;;13.55;64.66;99050.72;6115759;23;96750;-86
2024/03/11 08:39:30;;;;;;;22.67;13.40;;;;;;;13.95;62.75;99040.13;6116034;23;96914;-86
2024/03/11 08:41:57;;;;;;;18.40;12.32;;;;;;;14.43;61.86;99051.75;6117678;23;97473;-80
2024/03/11 08:44:23;;;;;;;18.20;12.02;;;;;;;14.40;61.20;99059.03;6115964;23;97337;-79
2024/03/11 08:46:49;;;;;;;20.02;12.82;;;;;;;14.22;61.51;99063.78;6113578;23;97288;-76
2024/03/11 08:49:15;;;;;;;22.48;12.88;;;;;;;14.11;61.81;99046.06;6089498;23;96671;-77
2024/03/11 08:51:41;;;;;;;26.80;13.88;;;;;;;14.12;62.25;99062.75;6115657;23;97526;-81
2024/03/11 08:54:07;;;;;;;18.83;12.80;;;;;;;14.24;61.99;99062.72;6115786;23;97502;-83
2024/03/11 08:56:34;;;;;;;21.95;12.07;;;;;;;14.59;61.35;99062.09;6090695;23;96893;-83
2024/03/11 08:59:01;;;;;;;18.52;11.98;;;;;;;15.20;59.60;99042.81;6117658;22;96676;-83
2024/03/11 09:01:29;;;;;;;15.82;11.70;;;;;;;15.46;58.55;99051.47;6115269;23;97824;-82
2024/03/11 09:03:55;;;;;;;18.45;11.52;;;;;;;15.62;58.53;99052.00;6091985;23;97319;-83
2024/03/11 09:06:22;;;;;;;19.48;11.95;;;;;;;15.36;58.91;99069.81;6115539;23;96693;-85
2024/03/11 09:08:49;;;;;;;19.27;11.55;;;;;;;15.37;58.75;99056.47;6067188;23;96934;-86
2024/03/11 09:11:15;;;;;;;20.48;10.98;;;;;;;15.27;59.10;99057.25;6115378;23;97772;-87
2024/03/11 09:13:44;;;;;;;23.05;10.70;;;;;;;15.25;58.90;99062.66;6116324;23;97301;-85
2024/03/11 09:16:10;;;;;;;21.73;11.52;;;;;;;14.95;59.89;99071.00;6116009;23;97294;-84
2024/03/11 09:18:37;;;;;;;22.95;11.45;;;;;;;14.76;60.28;99068.00;6091814;23;96830;-85
2024/03/11 09:21:05;;;;;;;15.45;9.80;;;;;;;14.83;60.57;99079.81;6111130;23;97985;-83
2024/03/11 09:23:31;;;;;;;15.98;11.30;;;;;;;14.49;61.16;99076.88;6111013;23;97294;-83
2024/03/11 09:25:57;;;;;;;18.88;10.50;;;;;;;14.54;61.65;99077.41;6112245;22;97055;-82
2024/03/11 09:28:23;;;;;;;19.92;11.02;;;;;;;14.46;61.74;99074.47;6063747;23;97179;-83
2024/03/11 09:30:49;;;;;;;20.92;11.32;;;;;;;14.53;61.41;99085.47;6088076;23;100367;-83
2024/03/11 09:33:14;;;;;;;22.50;10.82;;;;;;;14.74;61.46;99069.91;6112487;23;97270;-83
2024/03/11 09:35:40;;;;;;;20.15;10.75;;;;;;;14.72;61.60;99091.16;6087962;23;97376;-83
2024/03/11 09:38:05;;;;;;;21.17;10.38;;;;;;;14.75;61.55;99069.81;6087728;23;96825;-84
2024/03/11 09:40:31;;;;;;;22.48;9.95;;;;;;;15.07;61.14;99079.88;6112876;23;97318;-84
2024/03/11 09:43:01;;;;;;;20.15;9.98;;;;;;;15.03;59.93;99070.44;6088904;23;100037;-83
2024/03/11 09:45:29;;;;;;;14.90;8.95;;;;;;;15.11;59.87;99078.69;6115756;23;97079;-84
2024/03/11 09:48:04;;;;;;;16.65;9.32;;;;;;;15.08;59.91;99078.91;6115267;23;97279;-84
2024/03/11 09:50:30;;;;;;;16.63;9.10;;;;;;;14.98;60.07;99085.78;6116169;23;97315;-84
2024/03/11 09:53:06;;;;;;;15.25;8.70;;;;;;;15.09;59.88;99080.56;6115866;23;96847;-85
2024/03/11 09:55:35;;;;;;;19.17;8.05;;;;;;;15.30;59.57;99091.38;6107194;22;97463;-85
2024/03/11 09:58:05;;;;;;;14.55;8.52;;;;;;;15.22;59.70;99089.31;6106832;23;97346;-85
2024/03/11 10:00:33;;;;;;;23.08;8.65;;;;;;;15.30;59.43;99086.97;6083136;23;97352;-83
2024/03/11 10:03:01;;;;;;;15.20;8.13;;;;;;;15.43;59.43;99100.13;6108230;22;100627;-85
2024/03/11 10:05:34;;;;;;;19.75;10.65;;;;;;;15.11;60.47;99097.19;6080912;23;97443;-85
2024/03/11 10:08:01;;;;;;;19.38;10.35;;;;;;;15.07;60.95;99080.72;6083014;23;97525;-84
2024/03/11 10:10:30;;;;;;;23.58;10.27;;;;;;;15.30;60.08;99102.84;6060372;23;100702;-82
2024/03/11 10:12:58;;;;;;;22.33;10.55;;;;;;;15.39;59.64;99101.31;6083031;23;100516;-86
2024/03/11 10:15:33;;;;;;;24.35;9.68;;;;;;;15.48;58.96;99108.56;6056336;23;97375;-83
2024/03/11 10:18:25;;;;;;;20.80;7.85;;;;;;;15.47;59.10;99106.84;6082912;23;97132;-84
2024/03/11 10:20:58;;;;;;;15.18;7.80;;;;;;;15.51;58.78;99104.84;6108030;22;99194;-85
2024/03/11 10:23:25;;;;;;;17.17;8.05;;;;;;;15.51;58.73;99103.06;6082894;23;98066;-83
2024/03/11 10:26:25;;;;;;;14.65;8.13;;;;;;;15.45;58.66;99102.66;6106905;23;96993;-85
2024/03/11 10:28:50;;;;;;;19.98;8.07;;;;;;;15.47;58.96;99108.66;6086226;23;96856;-85
2024/03/11 10:31:24;;;;;;;18.80;8.35;;;;;;;15.44;59.00;99104.44;6106626;23;97513;-85
2024/03/11 10:33:52;;;;;;;16.30;7.75;;;;;;;15.56;58.78;99110.63;6103977;23;98335;-82
2024/03/11 10:36:20;;;;;;;16.20;8.20;;;;;;;15.45;58.95;99108.78;6081543;23;97306;-86
2024/03/11 10:38:47;;;;;;;19.38;8.18;;;;;;;15.46;58.72;99102.53;6106420;22;97311;-85
2024/03/11 10:41:20;;;;;;;19.50;8.35;;;;;;;15.56;58.63;99103.56;6105479;23;97901;-83
2024/03/11 10:43:48;;;;;;;17.63;9.13;;;;;;;15.44;59.11;99108.91;6081810;23;100850;-83
2024/03/11 10:46:22;;;;;;;23.60;9.07;;;;;;;15.38;59.59;99094.31;6103086;23;97228;-85
2024/03/11 10:48:50;;;;;;;25.65;10.00;;;;;;;15.43;59.39;99102.75;6079671;23;97436;-85
2024/03/11 10:51:24;;;;;;;16.10;8.32;;;;;;;15.35;59.57;99095.38;6080244;23;100424;-83
2024/03/11 10:53:52;;;;;;;18.60;8.75;;;;;;;15.56;59.47;99098.28;6103068;22;100879;-80
2024/03/11 10:56:20;;;;;;;15.57;8.60;;;;;;;15.62;59.43;99097.81;6078488;23;97268;-83
2024/03/11 10:58:58;;;;;;;21.70;9.23;;;;;;;15.46;59.38;99093.78;6103779;22;97336;-83
2024/03/11 11:01:33;;;;;;;27.38;8.48;;;;;;;15.45;59.55;99094.72;6106116;23;99392;-83
2024/03/11 11:04:13;;;;;;;17.15;7.85;;;;;;;15.36;59.34;99109.47;6080686;23;98499;-81
2024/03/11 11:06:44;;;;;;;19.87;8.70;;;;;;;15.47;59.43;99098.09;6107270;23;97502;-85
2024/03/11 11:09:14;;;;;;;23.08;8.88;;;;;;;15.50;59.08;99095.22;6106824;23;97274;-79
2024/03/11 11:11:51;;;;;;;16.85;8.95;;;;;;;15.46;58.98;99091.13;6105949;23;100375;-79
2024/03/11 11:14:18;;;;;;;24.08;9.75;;;;;;;15.64;58.75;99105.63;6104941;23;100909;-79
2024/03/11 11:16:45;;;;;;;19.88;7.72;;;;;;;15.57;58.57;99107.88;6105840;23;97438;-79
2024/03/11 11:19:33;;;;;;;16.45;8.15;;;;;;;15.65;58.76;99103.81;6105355;22;97175;-78